Time;durP1;ratioP1;P1;durP2;ratioP2;P2;SDS_P1;SDS_P2;PMS_P1;PMS_P2;Temp;Humidity;BMP_temperature;BMP_pressure;BME280_temperature;BME280_humidity;BME280_pressure;Samples;Min_cycle;Max_cycle;Signal;HPM_P1;HPM_P2
2021/07/06 00:00:37;;;;;;;3.22;0.70;;;;;;;17.53;92.55;99170.06;4974890;28;20109;-74
2021/07/06 00:03:04;;;;;;;1.23;0.52;;;;;;;17.41;94.54;99170.34;4975969;28;20051;-73
2021/07/06 00:05:31;;;;;;;2.58;0.73;;;;;;;17.32;96.61;99144.38;4975762;28;20440;-72
2021/07/06 00:07:58;;;;;;;1.25;0.70;;;;;;;17.23;95.04;99127.31;4975924;28;20388;-73
2021/07/06 00:10:25;;;;;;;1.65;0.70;;;;;;;17.05;98.28;99119.31;4975983;28;20051;-70
2021/07/06 00:12:53;;;;;;;1.67;0.75;;;;;;;16.91;99.70;99110.81;4975871;28;20330;-73
2021/07/06 00:15:23;;;;;;;1.73;0.70;;;;;;;16.91;100.00;99108.09;4974484;28;20047;-72
2021/07/06 00:17:56;;;;;;;0.50;0.50;;;;;;;16.87;100.00;99109.41;4975451;28;20453;-74
2021/07/06 00:20:26;;;;;;;0.77;0.50;;;;;;;16.88;100.00;99113.81;4983668;28;20050;-74
2021/07/06 00:22:57;;;;;;;1.00;0.70;;;;;;;16.84;100.00;99112.44;4993900;28;20082;-74
2021/07/06 00:25:25;;;;;;;2.15;0.80;;;;;;;16.81;100.00;99104.66;5026578;28;20046;-73
2021/07/06 00:27:53;;;;;;;1.85;0.63;;;;;;;16.76;100.00;99083.59;4994014;28;20108;-72
2021/07/06 00:30:20;;;;;;;1.52;0.70;;;;;;;16.77;100.00;99074.50;4994263;28;20058;-72
2021/07/06 00:32:47;;;;;;;4.00;0.60;;;;;;;16.76;100.00;99069.28;4995111;28;20054;-73
2021/07/06 00:35:14;;;;;;;2.70;0.70;;;;;;;16.76;100.00;99067.44;4994937;28;20050;-71
2021/07/06 00:37:41;;;;;;;0.88;0.85;;;;;;;16.76;100.00;99061.19;4994825;28;20055;-73
2021/07/06 00:40:09;;;;;;;1.02;0.90;;;;;;;16.70;100.00;99055.47;4997799;28;20133;-74
2021/07/06 00:42:46;;;;;;;1.95;1.35;;;;;;;16.76;100.00;99066.56;4999321;28;20061;-74
2021/07/06 00:45:14;;;;;;;7.63;1.30;;;;;;;16.75;100.00;99054.97;4999296;28;20317;-70
2021/07/06 00:47:42;;;;;;;3.67;1.25;;;;;;;16.76;100.00;99050.41;4999464;28;20109;-74
2021/07/06 00:50:13;;;;;;;1.83;1.13;;;;;;;16.79;100.00;99047.41;4999426;28;20076;-73
2021/07/06 00:52:40;;;;;;;7.60;1.55;;;;;;;16.72;100.00;99043.69;4999310;28;20046;-74
2021/07/06 00:55:08;;;;;;;4.63;1.20;;;;;;;16.64;100.00;99036.38;4997958;28;20046;-75
2021/07/06 00:57:35;;;;;;;3.97;1.00;;;;;;;16.65;100.00;99030.00;4999258;28;20132;-72
2021/07/06 01:00:10;;;;;;;5.45;0.90;;;;;;;16.72;100.00;99035.59;4998173;28;20058;-73
2021/07/06 01:02:37;;;;;;;2.67;0.80;;;;;;;16.64;100.00;99037.25;4998884;28;20392;-74
2021/07/06 01:05:07;;;;;;;2.10;0.90;;;;;;;16.60;100.00;99045.81;4999025;28;20050;-74
2021/07/06 01:07:34;;;;;;;1.67;0.87;;;;;;;16.58;100.00;99045.97;4998948;28;20061;-71
2021/07/06 01:10:03;;;;;;;5.18;0.82;;;;;;;16.63;100.00;99046.34;4998898;28;20360;-72
2021/07/06 01:12:31;;;;;;;2.80;0.70;;;;;;;16.59;100.00;99039.56;4998871;28;20121;-71
2021/07/06 01:14:59;;;;;;;1.05;0.90;;;;;;;16.61;100.00;99025.94;4998689;28;20046;-72
2021/07/06 01:17:28;;;;;;;1.98;0.73;;;;;;;16.72;100.00;99016.72;4998873;28;20436;-71
2021/07/06 01:19:57;;;;;;;2.40;0.60;;;;;;;16.70;100.00;99015.06;4998674;28;20053;-72
2021/07/06 01:22:32;;;;;;;3.65;0.60;;;;;;;16.77;100.00;99009.03;4997484;28;20047;-72
2021/07/06 01:25:02;;;;;;;1.40;0.68;;;;;;;16.68;99.69;99000.06;4997479;28;20046;-71
2021/07/06 01:27:29;;;;;;;5.47;0.70;;;;;;;16.70;99.31;98993.50;4998366;28;20441;-71
2021/07/06 01:29:55;;;;;;;2.33;1.00;;;;;;;16.70;98.95;98974.63;4998284;28;20364;-71
2021/07/06 01:32:22;;;;;;;1.52;0.73;;;;;;;16.70;99.18;98971.09;4998816;28;20081;-71
2021/07/06 01:34:49;;;;;;;6.85;0.90;;;;;;;16.68;99.45;98981.19;4998314;28;20089;-71
2021/07/06 01:37:17;;;;;;;0.90;0.70;;;;;;;16.65;98.30;98992.28;4997621;28;20050;-71
2021/07/06 01:39:45;;;;;;;5.00;0.98;;;;;;;16.63;100.00;98997.84;4997277;28;20416;-71
2021/07/06 01:42:19;;;;;;;2.20;0.70;;;;;;;16.61;99.95;98988.25;4997064;28;20462;-71
2021/07/06 01:44:47;;;;;;;1.13;0.90;;;;;;;16.57;100.00;98979.63;4997064;28;20081;-71
2021/07/06 01:47:14;;;;;;;3.25;0.80;;;;;;;16.61;98.91;98994.44;4997116;28;20447;-72
2021/07/06 01:49:41;;;;;;;8.30;1.08;;;;;;;16.65;97.58;99000.34;4996647;28;20380;-71
2021/07/06 01:52:07;;;;;;;3.72;0.88;;;;;;;16.59;99.11;98996.47;4996943;28;20050;-71
2021/07/06 01:54:34;;;;;;;1.77;0.82;;;;;;;16.60;99.19;99000.03;4996904;28;20100;-71
2021/07/06 01:57:00;;;;;;;3.05;0.70;;;;;;;16.57;100.00;98985.03;4996921;28;20058;-71
2021/07/06 01:59:27;;;;;;;6.18;1.55;;;;;;;16.57;100.00;98971.56;4996947;28;20050;-71
2021/07/06 02:01:54;;;;;;;2.38;1.33;;;;;;;16.60;99.50;98973.09;4997107;28;20050;-72
2021/07/06 02:04:20;;;;;;;1.75;1.42;;;;;;;16.61;98.81;98966.69;4996604;28;20106;-72
2021/07/06 02:06:47;;;;;;;1.70;1.60;;;;;;;16.70;97.04;98961.16;4996756;28;20046;-71
2021/07/06 02:09:14;;;;;;;2.25;1.50;;;;;;;16.80;96.00;98966.41;4996150;28;20101;-71
2021/07/06 02:11:42;;;;;;;3.33;2.00;;;;;;;16.82;96.32;98977.00;4996945;28;20054;-71
2021/07/06 02:14:09;;;;;;;3.67;1.80;;;;;;;16.77;97.66;98984.78;4996870;28;20384;-71
2021/07/06 02:16:37;;;;;;;4.18;1.90;;;;;;;16.72;96.74;98968.25;4996824;28;20124;-71
2021/07/06 02:19:04;;;;;;;5.80;1.52;;;;;;;16.85;95.27;98974.00;4996660;28;20082;-71
2021/07/06 02:21:30;;;;;;;3.42;1.20;;;;;;;16.89;95.38;98963.75;4979684;28;20429;-71
2021/07/06 02:23:57;;;;;;;4.60;1.05;;;;;;;16.92;95.82;98979.56;4976830;28;20337;-71
2021/07/06 02:26:23;;;;;;;6.05;1.00;;;;;;;16.93;94.61;98957.84;4975836;28;20058;-72
2021/07/06 02:28:50;;;;;;;2.50;1.33;;;;;;;16.96;94.12;98946.72;4976846;28;20441;-72
2021/07/06 02:31:17;;;;;;;6.30;0.77;;;;;;;16.97;94.61;98953.84;4976803;28;20109;-71
2021/07/06 02:33:43;;;;;;;5.07;1.30;;;;;;;17.00;92.49;98947.25;4976784;28;20055;-72
2021/07/06 02:36:10;;;;;;;2.85;1.00;;;;;;;17.00;94.12;98946.41;4976681;28;20101;-71
2021/07/06 02:38:41;;;;;;;4.38;1.02;;;;;;;16.97;93.15;98940.34;4976702;28;20500;-72
2021/07/06 02:41:08;;;;;;;;;;;;;;;16.98;93.19;98935.78;4976943;28;20389;-71
2021/07/06 02:43:34;;;;;;;3.50;0.85;;;;;;;16.96;93.37;98944.03;4976955;28;20276;-72
2021/07/06 02:46:01;;;;;;;4.80;1.13;;;;;;;16.86;94.48;98918.25;4976489;28;20440;-72
2021/07/06 02:48:28;;;;;;;4.20;1.23;;;;;;;16.97;93.64;98934.13;4977068;28;20054;-71
2021/07/06 02:50:54;;;;;;;7.72;1.08;;;;;;;16.97;93.12;98934.97;4975534;28;20404;-71
2021/07/06 02:53:21;;;;;;;1.27;0.93;;;;;;;16.97;92.51;98926.88;4976488;28;20051;-71
2021/07/06 02:55:47;;;;;;;4.82;0.95;;;;;;;16.94;94.08;98904.81;4976256;28;20058;-71
2021/07/06 02:58:14;;;;;;;2.92;0.95;;;;;;;16.99;92.70;98904.31;4976386;28;20441;-71
2021/07/06 03:00:41;;;;;;;1.92;1.10;;;;;;;16.89;92.47;98886.41;4975927;28;20047;-71
2021/07/06 03:03:08;;;;;;;2.88;1.00;;;;;;;17.05;91.86;98915.28;4976287;28;20137;-71
2021/07/06 03:05:36;;;;;;;1.55;0.98;;;;;;;17.08;91.59;98911.41;4976653;28;20329;-71
2021/07/06 03:08:04;;;;;;;2.95;0.80;;;;;;;17.12;91.52;98909.22;4976238;28;20124;-72
2021/07/06 03:10:36;;;;;;;4.65;1.00;;;;;;;17.13;91.41;98911.75;4975100;28;20117;-71
2021/07/06 03:13:04;;;;;;;6.10;1.10;;;;;;;17.22;90.84;98904.53;4976203;28;20101;-71
2021/07/06 03:15:32;;;;;;;2.25;0.70;;;;;;;17.15;91.60;98898.94;4976152;28;20345;-71
2021/07/06 03:18:01;;;;;;;4.13;0.90;;;;;;;17.27;91.08;98901.31;4976160;28;20047;-71
2021/07/06 03:20:28;;;;;;;4.28;1.33;;;;;;;17.27;90.21;98898.63;4984520;28;20100;-71
2021/07/06 03:22:55;;;;;;;2.38;1.00;;;;;;;17.37;89.38;98897.44;4995472;28;20120;-71
2021/07/06 03:25:25;;;;;;;3.60;0.80;;;;;;;17.29;89.19;98861.53;4995430;28;20430;-71
2021/07/06 03:27:53;;;;;;;4.70;0.80;;;;;;;17.50;88.65;98859.16;4995595;28;20098;-71
2021/07/06 03:30:25;;;;;;;10.55;1.10;;;;;;;17.53;88.76;98830.19;4995786;28;20284;-71
2021/07/06 03:32:54;;;;;;;3.40;0.80;;;;;;;17.52;88.08;98842.81;4995373;28;20432;-71
2021/07/06 03:35:21;;;;;;;3.63;1.08;;;;;;;17.55;88.91;98834.38;4995230;28;20125;-71
2021/07/06 03:37:48;;;;;;;2.80;0.80;;;;;;;17.61;88.68;98841.75;4995546;28;20050;-71
2021/07/06 03:40:16;;;;;;;4.13;1.10;;;;;;;17.61;88.34;98849.84;4995648;28;20093;-71
2021/07/06 03:42:47;;;;;;;5.28;1.00;;;;;;;17.60;89.08;98858.97;4995493;28;20054;-71
2021/07/06 03:45:14;;;;;;;4.47;0.85;;;;;;;17.69;88.07;98850.88;4995428;28;20042;-71
2021/07/06 03:47:41;;;;;;;3.55;0.90;;;;;;;17.74;88.04;98843.09;4994515;28;20436;-71
2021/07/06 03:50:12;;;;;;;6.80;1.00;;;;;;;17.73;88.93;98836.00;4995351;28;20086;-71
2021/07/06 03:52:39;;;;;;;2.35;0.98;;;;;;;17.81;87.60;98827.88;4995227;28;20511;-72
2021/07/06 03:55:06;;;;;;;2.92;0.80;;;;;;;17.81;87.76;98827.88;4995538;28;20456;-71
2021/07/06 03:57:33;;;;;;;4.90;1.00;;;;;;;17.81;87.24;98813.56;4995445;28;20133;-71
2021/07/06 04:00:05;;;;;;;3.80;1.00;;;;;;;17.96;87.19;98813.66;4995229;28;20050;-71
2021/07/06 04:02:32;;;;;;;2.85;0.93;;;;;;;18.01;87.12;98800.47;4975644;28;20055;-72
2021/07/06 04:04:59;;;;;;;5.78;1.30;;;;;;;18.05;87.41;98818.88;4976000;28;20089;-71
2021/07/06 04:07:25;;;;;;;2.83;1.02;;;;;;;18.05;87.73;98824.28;4975807;28;20051;-71
2021/07/06 04:09:52;;;;;;;4.57;1.00;;;;;;;18.02;88.10;98831.84;4975900;28;20051;-72
2021/07/06 04:12:19;;;;;;;3.25;1.13;;;;;;;18.02;87.37;98831.84;4976013;28;20102;-72
2021/07/06 04:14:45;;;;;;;3.72;1.05;;;;;;;18.17;87.25;98840.97;4979583;28;20051;-71
2021/07/06 04:17:12;;;;;;;2.90;1.00;;;;;;;18.25;86.48;98840.06;4979183;28;20046;-72
2021/07/06 04:19:39;;;;;;;3.35;1.27;;;;;;;18.27;85.74;98843.44;4981139;28;20557;-71
2021/07/06 04:22:05;;;;;;;6.70;1.27;;;;;;;18.26;86.41;98847.13;4994101;28;20042;-71
2021/07/06 04:24:33;;;;;;;3.38;1.13;;;;;;;18.27;85.82;98856.09;4979025;28;20440;-71
2021/07/06 04:27:01;;;;;;;4.82;1.40;;;;;;;18.31;85.83;98863.66;4982162;28;20526;-72
2021/07/06 04:29:27;;;;;;;5.78;1.02;;;;;;;18.23;86.19;98830.44;4998513;28;20046;-73
2021/07/06 04:31:54;;;;;;;2.65;1.10;;;;;;;18.30;87.45;98858.47;4998809;28;20050;-71
2021/07/06 04:34:21;;;;;;;6.35;1.45;;;;;;;18.12;90.27;98866.78;4995716;28;20062;-72
2021/07/06 04:36:49;;;;;;;3.50;1.30;;;;;;;17.91;90.74;98887.06;4981251;28;20102;-72
2021/07/06 04:39:15;;;;;;;6.28;1.30;;;;;;;17.83;93.34;98911.38;4979058;28;20055;-72
2021/07/06 04:41:44;;;;;;;4.35;1.10;;;;;;;17.76;92.87;98928.25;4979621;28;20051;-71
2021/07/06 04:44:12;;;;;;;1.48;1.38;;;;;;;17.81;91.97;98932.31;4987199;28;20050;-72
2021/07/06 04:46:39;;;;;;;5.25;1.40;;;;;;;17.88;92.22;98952.19;4977773;28;20509;-71
2021/07/06 04:49:06;;;;;;;2.33;1.30;;;;;;;17.90;92.18;98959.13;4977875;28;20425;-71
2021/07/06 04:51:33;;;;;;;2.88;1.40;;;;;;;17.80;94.05;98980.03;4978666;28;20059;-71
2021/07/06 04:54:00;;;;;;;4.65;1.35;;;;;;;17.71;95.19;98979.19;4978757;28;20050;-71
2021/07/06 04:56:28;;;;;;;2.30;1.40;;;;;;;17.74;94.99;98968.06;4978719;28;20046;-71
2021/07/06 04:58:55;;;;;;;4.45;1.50;;;;;;;17.63;96.41;98971.97;4978456;28;20433;-71
2021/07/06 05:01:22;;;;;;;3.42;1.40;;;;;;;17.54;97.50;98958.63;4978699;28;20091;-71
2021/07/06 05:03:50;;;;;;;3.28;1.13;;;;;;;17.41;98.63;98954.59;4978680;28;20058;-72
2021/07/06 05:06:18;;;;;;;2.60;1.27;;;;;;;17.27;100.00;98939.06;4978641;28;20050;-71
2021/07/06 05:08:45;;;;;;;3.72;1.10;;;;;;;17.21;99.52;98927.13;4986019;28;20112;-72
2021/07/06 05:11:12;;;;;;;1.35;1.00;;;;;;;17.13;100.00;98922.53;4981222;28;20076;-71
2021/07/06 05:13:39;;;;;;;1.00;0.90;;;;;;;17.04;100.00;98918.13;4978237;28;20055;-72
2021/07/06 05:16:06;;;;;;;2.75;1.13;;;;;;;17.04;100.00;98954.03;4978198;28;20127;-71
2021/07/06 05:18:33;;;;;;;2.38;0.98;;;;;;;17.03;100.00;98964.97;4978245;28;20105;-72
2021/07/06 05:21:00;;;;;;;4.22;0.90;;;;;;;17.00;100.00;98965.28;4991090;28;20073;-72
2021/07/06 05:23:26;;;;;;;1.70;0.90;;;;;;;16.96;100.00;98929.72;4979894;28;20062;-72
2021/07/06 05:25:53;;;;;;;1.65;0.90;;;;;;;16.99;100.00;98929.38;4977334;28;20047;-72
2021/07/06 05:28:19;;;;;;;0.70;0.70;;;;;;;17.01;100.00;98923.84;4978027;28;20054;-72
2021/07/06 05:30:46;;;;;;;2.40;0.80;;;;;;;17.00;100.00;98927.56;4978167;28;20433;-72
2021/07/06 05:33:13;;;;;;;2.88;1.00;;;;;;;16.95;100.00;98934.28;4976766;28;20061;-71
2021/07/06 05:35:39;;;;;;;1.23;0.70;;;;;;;16.97;100.00;98918.78;4980902;28;20054;-72
2021/07/06 05:38:06;;;;;;;1.58;0.85;;;;;;;17.03;100.00;98919.16;4977766;28;20078;-72
2021/07/06 05:40:39;;;;;;;1.88;0.90;;;;;;;16.97;100.00;98899.06;4978131;28;20074;-73
2021/07/06 05:43:07;;;;;;;0.77;0.63;;;;;;;17.04;99.35;98892.03;4978042;28;20058;-72
2021/07/06 05:45:35;;;;;;;1.38;0.98;;;;;;;16.99;99.39;98875.47;4960970;28;20054;-69
2021/07/06 05:48:02;;;;;;;1.85;0.90;;;;;;;16.96;100.00;98847.00;4976859;28;20097;-74
2021/07/06 05:50:29;;;;;;;1.90;0.90;;;;;;;16.96;99.34;98852.41;4977802;28;20055;-71
2021/07/06 05:52:56;;;;;;;5.05;0.93;;;;;;;16.96;99.35;98827.31;4980964;28;20440;-69
2021/07/06 05:55:24;;;;;;;3.60;0.88;;;;;;;16.80;98.18;98801.22;4987293;28;20090;-76
2021/07/06 05:57:50;;;;;;;1.25;0.60;;;;;;;16.99;95.79;98801.88;4989796;28;20054;-68
2021/07/06 06:00:18;;;;;;;2.90;0.68;;;;;;;17.04;93.27;98777.97;4987480;28;20054;-69
2021/07/06 06:02:47;;;;;;;1.02;0.45;;;;;;;16.99;93.28;98761.47;4986032;28;20076;-72
2021/07/06 06:05:14;;;;;;;0.75;0.43;;;;;;;16.97;91.87;98773.25;4986635;28;20097;-70
2021/07/06 06:07:41;;;;;;;1.65;0.60;;;;;;;16.93;90.21;98769.22;4985256;28;20102;-76
2021/07/06 06:10:11;;;;;;;1.95;0.50;;;;;;;16.98;91.64;98817.19;4984911;28;20109;-76
2021/07/06 06:12:38;;;;;;;1.38;0.63;;;;;;;16.97;90.49;98827.16;4987535;28;20385;-70
2021/07/06 06:15:09;;;;;;;2.45;0.60;;;;;;;16.96;91.68;98822.75;4983686;28;20050;-74
2021/07/06 06:17:36;;;;;;;;;;;;;;;17.03;89.21;98835.59;4977500;28;20054;-70
2021/07/06 06:20:05;;;;;;;1.10;0.50;;;;;;;17.07;88.64;98831.56;4979612;28;19972;-70
2021/07/06 06:22:32;;;;;;;0.95;0.40;;;;;;;17.12;89.69;98813.03;4975943;28;20098;-70
2021/07/06 06:25:08;;;;;;;1.23;0.50;;;;;;;17.18;89.19;98812.34;4975514;28;20058;-70
2021/07/06 06:27:35;;;;;;;0.65;0.50;;;;;;;17.25;88.71;98839.47;4976702;28;20059;-70
2021/07/06 06:30:04;;;;;;;1.30;0.82;;;;;;;17.32;87.67;98837.78;4976824;28;20495;-70
2021/07/06 06:32:30;;;;;;;2.00;0.60;;;;;;;17.37;88.46;98854.28;4976764;28;20404;-69
2021/07/06 06:34:57;;;;;;;2.20;0.40;;;;;;;17.35;88.02;98842.84;4975682;28;20432;-69
2021/07/06 06:37:24;;;;;;;1.27;0.40;;;;;;;17.36;89.07;98871.50;4975885;28;20051;-71
2021/07/06 06:39:50;;;;;;;0.93;0.30;;;;;;;17.43;88.60;98889.69;4976658;28;20066;-70
2021/07/06 06:42:17;;;;;;;0.63;0.47;;;;;;;17.42;88.57;98894.22;4976645;28;20519;-71
2021/07/06 06:44:43;;;;;;;0.65;0.40;;;;;;;17.49;88.02;98894.41;4981652;28;20108;-70
2021/07/06 06:47:11;;;;;;;1.92;0.88;;;;;;;17.48;89.58;98890.84;4987515;28;20173;-74
2021/07/06 06:49:38;;;;;;;2.45;0.52;;;;;;;17.52;90.05;98899.44;4996445;28;20121;-74
2021/07/06 06:52:05;;;;;;;2.28;0.60;;;;;;;17.46;90.72;98900.97;4988288;28;20050;-71
2021/07/06 06:54:33;;;;;;;1.15;0.60;;;;;;;17.41;90.65;98911.44;4991274;28;20054;-75
2021/07/06 06:57:01;;;;;;;1.95;0.50;;;;;;;17.40;91.69;98920.53;4992761;28;20050;-72
2021/07/06 06:59:28;;;;;;;1.20;0.57;;;;;;;17.31;91.28;98919.69;4995274;28;20050;-75
2021/07/06 07:02:16;;;;;;;2.83;0.45;;;;;;;17.38;90.45;98919.88;4996320;28;20046;-72
2021/07/06 07:04:43;;;;;;;1.08;0.57;;;;;;;17.39;90.62;98929.66;4976823;28;20356;-74
2021/07/06 07:07:10;;;;;;;0.98;0.50;;;;;;;17.43;89.81;98936.38;4984848;28;20053;-71
2021/07/06 07:09:37;;;;;;;0.50;0.50;;;;;;;17.37;90.47;98915.47;5004047;28;20062;-72
2021/07/06 07:12:05;;;;;;;1.42;0.60;;;;;;;17.42;91.15;98940.09;4992764;28;20089;-72
2021/07/06 07:14:32;;;;;;;2.00;0.60;;;;;;;17.41;91.12;98949.19;5003061;28;20081;-75
2021/07/06 07:16:58;;;;;;;1.27;0.52;;;;;;;17.48;88.96;98949.34;4996022;28;20368;-71
2021/07/06 07:19:25;;;;;;;0.75;0.55;;;;;;;17.48;88.97;98946.66;4994131;28;20050;-72
2021/07/06 07:22:00;;;;;;;2.20;0.40;;;;;;;17.51;88.48;98957.13;4975672;28;20105;-72
2021/07/06 07:24:28;;;;;;;1.45;0.47;;;;;;;17.45;90.40;98960.47;4979332;28;20109;-74
2021/07/06 07:26:55;;;;;;;0.70;0.50;;;;;;;17.45;91.04;98974.81;4994776;28;20050;-71
2021/07/06 07:29:22;;;;;;;1.25;0.50;;;;;;;17.44;90.53;98970.41;4992791;28;20054;-75
2021/07/06 07:31:49;;;;;;;2.92;0.65;;;;;;;17.55;89.78;98974.66;4995878;28;20054;-74
2021/07/06 07:34:16;;;;;;;2.05;0.52;;;;;;;17.60;90.99;98958.78;4995620;28;20050;-74
2021/07/06 07:36:42;;;;;;;0.65;0.50;;;;;;;17.67;89.75;98969.75;4995389;28;20046;-72
2021/07/06 07:39:10;;;;;;;0.73;0.40;;;;;;;17.76;89.08;98978.72;4993105;28;20050;-73
2021/07/06 07:41:37;;;;;;;0.60;0.38;;;;;;;17.77;87.12;98961.50;4984937;28;20093;-75
2021/07/06 07:44:04;;;;;;;2.30;0.40;;;;;;;17.88;87.67;98960.28;4984660;28;20069;-74
2021/07/06 07:46:31;;;;;;;0.95;0.30;;;;;;;17.93;85.82;98955.25;4976545;28;20433;-73
2021/07/06 07:48:58;;;;;;;2.83;0.60;;;;;;;17.99;86.00;98965.34;4979238;28;20137;-76
2021/07/06 07:51:25;;;;;;;0.82;0.30;;;;;;;17.97;86.13;98966.53;4982849;28;20050;-75
2021/07/06 07:53:52;;;;;;;3.35;0.63;;;;;;;18.09;84.94;98964.34;4996194;28;20042;-71
2021/07/06 07:56:18;;;;;;;0.90;0.40;;;;;;;18.20;84.66;98977.50;4997476;28;20054;-73
2021/07/06 07:58:45;;;;;;;0.55;0.45;;;;;;;18.21;85.58;98978.31;4998895;28;20093;-72
2021/07/06 08:01:12;;;;;;;0.60;0.50;;;;;;;18.32;86.00;98973.38;4998877;28;20046;-72
2021/07/06 08:03:38;;;;;;;0.90;0.90;;;;;;;18.41;85.16;98968.78;5002069;28;20050;-72
2021/07/06 08:06:05;;;;;;;0.75;0.60;;;;;;;18.48;86.04;98973.50;5001178;28;20053;-72
2021/07/06 08:08:31;;;;;;;0.85;0.43;;;;;;;18.50;84.74;98964.22;4997264;28;20058;-74
2021/07/06 08:11:00;;;;;;;1.23;0.40;;;;;;;18.47;84.58;98978.09;4998903;28;20061;-75
2021/07/06 08:13:27;;;;;;;2.38;0.60;;;;;;;18.55;85.00;98975.34;4998886;28;20432;-72
2021/07/06 08:15:54;;;;;;;0.75;0.50;;;;;;;18.53;84.17;98993.56;4999112;28;20057;-73
2021/07/06 08:18:21;;;;;;;1.70;0.40;;;;;;;18.46;84.00;99004.25;4998613;28;20050;-73
2021/07/06 08:20:48;;;;;;;1.27;0.60;;;;;;;18.51;80.60;99013.69;4985791;28;20055;-73
2021/07/06 08:23:16;;;;;;;0.88;0.57;;;;;;;18.38;78.90;99017.78;4979123;28;20058;-72
2021/07/06 08:25:43;;;;;;;3.10;0.68;;;;;;;18.46;77.12;99025.00;4986587;28;20046;-72
2021/07/06 08:28:10;;;;;;;2.00;0.47;;;;;;;18.29;78.69;99008.84;4998145;28;20499;-72
2021/07/06 08:30:39;;;;;;;1.15;0.50;;;;;;;18.37;77.27;99017.94;4995465;28;20458;-72
2021/07/06 08:33:06;;;;;;;2.10;0.80;;;;;;;18.25;78.96;99007.50;4997926;28;20054;-72
2021/07/06 08:35:33;;;;;;;0.60;0.40;;;;;;;18.31;76.15;99006.81;4998678;28;20051;-72
2021/07/06 08:38:00;;;;;;;1.13;0.40;;;;;;;18.33;78.15;99036.34;4998751;28;20050;-72
2021/07/06 08:40:27;;;;;;;1.95;0.80;;;;;;;18.36;74.20;99029.78;4997228;28;20096;-72
2021/07/06 08:42:55;;;;;;;1.13;0.50;;;;;;;18.29;76.81;99016.94;4998738;28;20390;-72
2021/07/06 08:45:22;;;;;;;1.17;0.60;;;;;;;18.26;74.87;99027.25;4998321;28;20054;-72
2021/07/06 08:47:52;;;;;;;3.72;0.90;;;;;;;18.35;76.36;99030.78;4998362;28;20049;-72
2021/07/06 08:50:19;;;;;;;1.77;0.70;;;;;;;18.32;74.54;99030.09;4996873;28;20046;-72
2021/07/06 08:52:46;;;;;;;1.83;0.68;;;;;;;18.41;74.60;99027.41;4998305;28;20058;-72
2021/07/06 08:55:15;;;;;;;2.33;0.82;;;;;;;18.50;75.68;99023.66;4998260;28;20054;-72
2021/07/06 08:57:43;;;;;;;1.85;0.80;;;;;;;18.64;75.18;99027.50;4998321;28;20116;-72
2021/07/06 09:00:14;;;;;;;2.72;0.80;;;;;;;18.69;76.10;99027.81;4997322;28;20054;-72
2021/07/06 09:02:41;;;;;;;2.97;0.60;;;;;;;18.65;74.18;99028.34;4998376;28;20321;-72
2021/07/06 09:05:20;;;;;;;4.90;1.00;;;;;;;18.79;75.46;99033.00;4993401;28;20129;-72
2021/07/06 09:07:47;;;;;;;3.60;0.82;;;;;;;18.72;74.91;99032.03;4997078;28;20046;-72
2021/07/06 09:10:17;;;;;;;1.63;0.85;;;;;;;18.73;74.88;99036.41;4997546;28;20050;-72
2021/07/06 09:12:47;;;;;;;1.90;0.70;;;;;;;18.81;74.37;99038.25;4997014;28;20104;-72
2021/07/06 09:15:31;;;;;;;4.32;0.85;;;;;;;18.81;74.10;99040.94;4998087;28;20062;-72
2021/07/06 09:18:05;;;;;;;3.10;0.60;;;;;;;18.86;74.84;99052.91;4997900;28;20050;-72
2021/07/06 09:20:32;;;;;;;4.35;0.90;;;;;;;18.71;74.72;99055.53;4988037;28;20054;-72
2021/07/06 09:23:20;;;;;;;3.22;0.77;;;;;;;18.95;74.22;99064.53;4990748;28;20121;-70
2021/07/06 09:26:02;;;;;;;2.40;0.68;;;;;;;18.88;74.11;99060.84;4996762;28;20061;-71
2021/07/06 09:28:32;;;;;;;3.40;0.80;;;;;;;19.06;70.83;99060.63;4995486;28;20121;-72
2021/07/06 09:31:18;;;;;;;5.13;0.70;;;;;;;19.36;69.48;99074.34;4996789;28;20054;-72
2021/07/06 09:33:50;;;;;;;3.22;0.80;;;;;;;19.65;68.51;99056.56;4997196;28;20058;-73
2021/07/06 09:36:36;;;;;;;1.55;0.50;;;;;;;19.74;68.94;99067.34;4997549;28;20058;-72
2021/07/06 09:39:05;;;;;;;0.88;0.73;;;;;;;19.61;67.54;99074.19;4997923;28;20050;-73
2021/07/06 09:41:33;;;;;;;4.25;0.80;;;;;;;19.54;67.67;99067.81;5000179;28;20431;-73
2021/07/06 09:44:16;;;;;;;3.63;0.70;;;;;;;19.47;65.50;99091.19;4999136;28;20054;-73
2021/07/06 09:46:50;;;;;;;2.70;0.75;;;;;;;19.52;65.81;99088.81;5000465;28;20069;-71
2021/07/06 09:49:19;;;;;;;2.58;0.63;;;;;;;19.32;67.66;99078.44;4997537;28;20120;-72
2021/07/06 09:51:55;;;;;;;2.70;0.70;;;;;;;19.39;67.83;99079.41;4996163;28;20482;-72
2021/07/06 09:54:35;;;;;;;2.22;0.90;;;;;;;19.32;68.65;99080.28;4996043;28;20054;-73
2021/07/06 09:57:29;;;;;;;1.77;0.63;;;;;;;19.34;68.16;99087.19;4997204;28;20042;-75
2021/07/06 10:00:01;;;;;;;5.30;0.93;;;;;;;19.26;67.44;99052.94;4997198;28;20054;-71
2021/07/06 10:02:30;;;;;;;1.40;1.15;;;;;;;19.37;65.11;99092.28;4996841;28;20451;-72
2021/07/06 10:04:59;;;;;;;4.10;0.85;;;;;;;19.34;65.46;99108.00;4996538;28;20141;-75
2021/07/06 10:07:26;;;;;;;4.70;0.70;;;;;;;19.36;66.35;99116.78;4995066;28;20053;-72
2021/07/06 10:09:54;;;;;;;1.13;0.90;;;;;;;19.29;67.40;99095.03;4996066;28;20069;-75
2021/07/06 10:12:22;;;;;;;0.90;0.52;;;;;;;19.26;66.17;99117.00;4995781;28;20128;-73
2021/07/06 10:14:49;;;;;;;1.80;0.70;;;;;;;19.35;66.18;99099.69;4996585;28;20387;-75
2021/07/06 10:17:36;;;;;;;1.17;0.70;;;;;;;19.62;66.02;99100.22;4995308;28;20355;-75
2021/07/06 10:20:12;;;;;;;3.97;0.90;;;;;;;19.79;64.74;99100.97;4988901;28;20054;-73
2021/07/06 10:22:39;;;;;;;2.00;0.57;;;;;;;20.04;63.12;99108.94;4986095;28;20058;-73
2021/07/06 10:25:11;;;;;;;2.42;0.93;;;;;;;20.30;63.07;99113.13;4991749;28;20097;-70
2021/07/06 10:27:43;;;;;;;4.50;0.60;;;;;;;20.44;60.68;99111.47;4995649;28;20067;-74
2021/07/06 10:30:23;;;;;;;6.35;1.10;;;;;;;20.51;62.06;99121.56;4995738;28;20128;-72
2021/07/06 10:32:53;;;;;;;1.90;0.65;;;;;;;20.41;59.90;99108.28;4990897;28;20062;-72
2021/07/06 10:35:39;;;;;;;3.17;0.70;;;;;;;20.35;59.75;99115.28;4995605;28;20051;-72
2021/07/06 10:41:02;;;;;;;3.05;0.70;;;;;;;20.67;59.32;99123.28;4996267;28;20070;-72
2021/07/06 10:43:51;;;;;;;4.65;0.70;;;;;;;20.94;60.09;99124.56;4994962;28;20054;-72
2021/07/06 10:46:20;;;;;;;6.32;1.40;;;;;;;20.93;60.76;99125.59;4994930;28;20398;-72
2021/07/06 10:49:06;;;;;;;3.25;1.20;;;;;;;21.19;59.40;99126.94;4990827;28;20430;-72
2021/07/06 10:51:33;;;;;;;2.95;0.68;;;;;;;21.34;60.18;99126.13;4976857;28;20058;-72
2021/07/06 10:54:16;;;;;;;4.95;0.80;;;;;;;21.43;62.00;99128.53;4976403;28;20417;-73
2021/07/06 10:56:46;;;;;;;5.03;0.52;;;;;;;21.53;57.83;99113.81;4976808;28;20117;-72
2021/07/06 10:59:23;;;;;;;4.85;0.90;;;;;;;21.24;56.62;99129.94;4975511;28;20054;-72
2021/07/06 11:01:49;;;;;;;5.03;0.95;;;;;;;21.08;56.38;99113.88;4976734;28;20440;-71
2021/07/06 11:04:47;;;;;;;4.57;1.02;;;;;;;21.28;56.85;99120.41;4995301;28;20129;-72
2021/07/06 11:07:29;;;;;;;2.45;0.82;;;;;;;21.65;56.26;99127.72;4994808;28;20058;-72
2021/07/06 11:09:55;;;;;;;1.98;0.60;;;;;;;21.70;53.45;99134.28;4994777;28;20058;-72
2021/07/06 11:12:30;;;;;;;3.15;0.70;;;;;;;21.97;54.59;99133.72;4995593;28;20360;-72
2021/07/06 11:15:02;;;;;;;8.10;0.95;;;;;;;21.92;53.88;99136.19;4995761;28;20112;-72
2021/07/06 11:17:39;;;;;;;5.20;0.95;;;;;;;22.21;54.64;99142.50;4995685;28;20055;-72
2021/07/06 11:20:06;;;;;;;3.75;0.75;;;;;;;22.31;52.25;99136.75;4990182;28;20050;-72
2021/07/06 11:22:40;;;;;;;4.88;0.80;;;;;;;22.34;53.20;99137.19;4975422;28;20050;-72
2021/07/06 11:25:23;;;;;;;6.47;1.30;;;;;;;22.63;53.68;99134.53;4981625;28;20093;-72
2021/07/06 11:27:59;;;;;;;5.25;1.02;;;;;;;22.83;53.44;99137.41;4995223;28;20054;-72
2021/07/06 11:30:37;;;;;;;7.20;0.73;;;;;;;22.64;51.64;99138.91;4994946;28;20061;-70
2021/07/06 11:33:13;;;;;;;4.50;1.02;;;;;;;22.46;50.38;99147.53;4992707;28;20047;-72
2021/07/06 11:35:53;;;;;;;5.18;0.80;;;;;;;22.05;51.83;99147.19;4989374;28;20097;-74
2021/07/06 11:38:25;;;;;;;5.55;0.85;;;;;;;21.81;53.82;99146.53;4994299;28;20088;-72
2021/07/06 11:40:57;;;;;;;4.55;0.98;;;;;;;21.84;53.00;99154.28;4994766;28;20061;-71
2021/07/06 11:43:27;;;;;;;6.47;1.33;;;;;;;21.59;55.30;99161.91;4995848;28;20116;-70